createdAt,value
2023-02-23T00:02:19.870Z,28.87
2023-02-23T00:04:49.725Z,26.67
2023-02-23T00:07:20.376Z,28.20
2023-02-23T00:09:48.880Z,28.47
2023-02-23T00:12:17.375Z,27.50
2023-02-23T00:14:46.125Z,29.10
2023-02-23T00:17:17.492Z,28.13
2023-02-23T00:19:50.388Z,27.90
2023-02-23T00:22:18.854Z,28.63
2023-02-23T00:24:48.144Z,26.63
2023-02-23T00:27:20.999Z,26.50
2023-02-23T00:29:50.995Z,26.17
2023-02-23T00:32:20.983Z,26.53
2023-02-23T00:34:50.975Z,25.47
2023-02-23T00:37:20.189Z,27.17
2023-02-23T00:39:50.362Z,28.80
2023-02-23T00:42:18.886Z,26.97
2023-02-23T00:44:48.923Z,27.10
2023-02-23T00:47:17.627Z,26.30
2023-02-23T00:49:46.650Z,26.80
2023-02-23T00:52:16.462Z,26.03
2023-02-23T00:54:45.048Z,28.27
2023-02-23T00:57:13.621Z,26.67
2023-02-23T00:59:42.120Z,27.00
2023-02-23T01:02:10.828Z,25.83
2023-02-23T01:04:39.308Z,29.03
2023-02-23T01:07:07.849Z,26.33
2023-02-23T01:09:38.058Z,27.30
2023-02-23T01:12:08.490Z,28.90
2023-02-23T01:14:38.656Z,26.33
2023-02-23T01:17:07.665Z,29.03
2023-02-23T01:19:38.114Z,26.50
2023-02-23T01:22:07.001Z,27.77
2023-02-23T01:24:38.584Z,26.60
2023-02-23T01:27:07.101Z,27.83
2023-02-23T01:29:35.829Z,27.70
2023-02-23T01:32:05.348Z,27.90
2023-02-23T01:34:33.900Z,30.70
2023-02-23T01:37:03.163Z,29.67
2023-02-23T01:39:33.563Z,28.63
2023-02-23T01:42:05.270Z,28.17
2023-02-23T01:45:16.550Z,29.03
2023-02-23T01:47:45.087Z,28.67
2023-02-23T01:50:16.198Z,28.33
2023-02-23T01:52:47.651Z,29.53
2023-02-23T01:55:23.510Z,27.63
2023-02-23T01:57:57.164Z,27.43
2023-02-23T02:00:27.812Z,27.27
2023-02-23T02:02:58.179Z,26.50
2023-02-23T02:05:30.819Z,29.07
2023-02-23T02:08:00.460Z,28.80
2023-02-23T02:10:45.114Z,27.77
2023-02-23T02:13:21.235Z,27.30
2023-02-23T02:16:18.521Z,27.70
2023-02-23T02:19:27.219Z,28.03
2023-02-23T02:22:43.700Z,27.00
2023-02-23T02:25:32.436Z,27.97
2023-02-23T02:28:30.998Z,28.10
2023-02-23T02:31:39.059Z,28.90
2023-02-23T02:34:42.575Z,28.33
2023-02-23T02:37:37.433Z,27.63
2023-02-23T02:40:19.257Z,29.03
2023-02-23T02:42:59.990Z,28.40
2023-02-23T02:45:37.377Z,28.10
2023-02-23T02:48:16.696Z,29.30
2023-02-23T02:50:50.175Z,28.03
2023-02-23T02:53:27.593Z,29.37
2023-02-23T02:55:59.708Z,28.30
2023-02-23T02:58:28.887Z,30.90
2023-02-23T03:01:14.668Z,29.90
2023-02-23T03:04:04.658Z,31.37
2023-02-23T03:06:54.249Z,29.10
2023-02-23T03:09:53.901Z,30.90
2023-02-23T03:12:50.664Z,29.77
2023-02-23T03:15:48.272Z,30.33
2023-02-23T03:18:47.197Z,29.03
2023-02-23T03:21:40.074Z,30.13
2023-02-23T03:24:33.117Z,31.37
2023-02-23T03:27:25.223Z,30.37
2023-02-23T03:30:19.660Z,30.57
2023-02-23T03:33:09.288Z,30.40
2023-02-23T03:36:06.829Z,30.53
2023-02-23T03:38:57.228Z,31.80
2023-02-23T03:41:46.677Z,30.33
2023-02-23T03:44:37.828Z,30.37
2023-02-23T03:47:26.710Z,30.80
2023-02-23T03:50:14.581Z,31.57
2023-02-23T03:53:05.003Z,31.27
2023-02-23T03:55:54.321Z,30.37
2023-02-23T03:58:47.337Z,30.03
2023-02-23T04:01:36.192Z,29.87
2023-02-23T04:04:23.169Z,29.77
2023-02-23T04:07:10.373Z,29.97
2023-02-23T04:09:56.044Z,30.10
2023-02-23T04:12:48.618Z,28.90
2023-02-23T04:15:23.550Z,32.47
2023-02-23T04:17:54.322Z,30.17
2023-02-23T04:20:23.362Z,31.97
2023-02-23T04:22:51.835Z,31.73
2023-02-23T04:25:22.917Z,33.03
2023-02-23T04:27:51.721Z,31.17
2023-02-23T04:30:20.802Z,31.53
2023-02-23T04:32:49.336Z,33.63
2023-02-23T04:35:19.374Z,30.47
2023-02-23T04:37:47.872Z,29.97
2023-02-23T04:40:16.516Z,30.13
2023-02-23T04:42:45.049Z,31.63
2023-02-23T04:45:13.488Z,31.90
2023-02-23T04:47:42.017Z,31.70
2023-02-23T04:50:12.078Z,30.77
2023-02-23T04:52:42.535Z,30.33
2023-02-23T04:55:17.234Z,32.27
2023-02-23T04:57:45.870Z,30.57
2023-02-23T05:00:15.200Z,31.13
2023-02-23T05:02:43.741Z,31.57
2023-02-23T05:05:13.036Z,33.43
2023-02-23T05:07:42.810Z,32.07
2023-02-23T05:10:12.589Z,30.17
2023-02-23T05:12:41.221Z,32.13
2023-02-23T05:15:11.312Z,32.60
2023-02-23T05:17:42.249Z,31.60
2023-02-23T05:20:12.724Z,32.30
2023-02-23T05:22:42.838Z,31.43
2023-02-23T05:25:11.854Z,30.80
2023-02-23T05:27:40.921Z,32.67
2023-02-23T05:30:10.878Z,30.73
2023-02-23T05:32:39.316Z,31.50
2023-02-23T05:35:09.003Z,29.20
2023-02-23T05:37:37.614Z,29.57
2023-02-23T05:40:09.353Z,29.43
2023-02-23T05:42:38.398Z,28.73
2023-02-23T05:45:08.224Z,30.13
2023-02-23T05:47:38.702Z,30.07
2023-02-23T05:50:11.418Z,30.57
2023-02-23T05:52:41.445Z,29.80
2023-02-23T05:55:12.627Z,30.10
2023-02-23T05:57:42.740Z,29.03
2023-02-23T06:00:13.378Z,29.50
2023-02-23T06:02:42.089Z,29.63
2023-02-23T06:05:12.800Z,29.00
2023-02-23T06:07:41.397Z,30.37
2023-02-23T06:10:12.667Z,28.53
2023-02-23T06:12:41.076Z,29.57
2023-02-23T06:15:10.227Z,29.57
2023-02-23T06:17:38.752Z,29.63
2023-02-23T06:20:08.082Z,29.00
2023-02-23T06:22:36.580Z,28.07
2023-02-23T06:25:06.375Z,29.57
2023-02-23T06:27:36.209Z,28.07
2023-02-23T06:30:05.009Z,29.33
2023-02-23T06:32:33.673Z,30.10
2023-02-23T06:35:05.231Z,30.53
2023-02-23T06:37:33.977Z,29.20
2023-02-23T06:40:02.749Z,28.77
2023-02-23T06:42:31.284Z,30.33
2023-02-23T06:45:01.131Z,29.90
2023-02-23T06:47:29.629Z,25.63
2023-02-23T06:49:59.887Z,27.40
2023-02-23T06:52:28.301Z,29.37
2023-02-23T06:54:56.969Z,29.30
2023-02-23T06:57:25.481Z,28.20
2023-02-23T06:59:54.332Z,28.00
2023-02-23T07:02:24.423Z,28.80
2023-02-23T07:04:52.932Z,28.57
2023-02-23T07:07:22.173Z,27.97
2023-02-23T07:09:50.690Z,27.67
2023-02-23T07:12:19.119Z,26.60
2023-02-23T07:14:47.571Z,27.17
2023-02-23T07:17:17.671Z,27.13
2023-02-23T07:19:48.033Z,26.93
2023-02-23T07:22:16.525Z,29.43
2023-02-23T07:24:44.958Z,26.50
2023-02-23T07:27:13.425Z,26.73
2023-02-23T07:29:41.889Z,28.17
2023-02-23T07:32:10.576Z,28.63
2023-02-23T07:34:39.650Z,27.10
2023-02-23T07:37:09.441Z,26.00
2023-02-23T07:39:37.874Z,27.33
2023-02-23T07:42:06.412Z,27.63
2023-02-23T07:44:34.838Z,27.00
2023-02-23T07:47:03.421Z,27.20
2023-02-23T07:49:32.913Z,26.70
2023-02-23T07:52:01.294Z,27.03
2023-02-23T07:54:31.091Z,26.67
2023-02-23T07:57:00.199Z,26.03
2023-02-23T07:59:28.698Z,28.07
2023-02-23T08:01:57.165Z,26.13
2023-02-23T08:04:25.719Z,26.93
2023-02-23T08:06:55.139Z,24.87
2023-02-23T08:09:23.805Z,23.90
2023-02-23T08:11:53.580Z,25.17
2023-02-23T08:14:23.685Z,23.83
2023-02-23T08:16:52.144Z,25.27
2023-02-23T08:19:22.773Z,25.70
2023-02-23T08:21:51.785Z,23.73
2023-02-23T08:24:20.534Z,25.07
2023-02-23T08:26:50.333Z,25.70
2023-02-23T08:29:20.727Z,23.03
2023-02-23T08:31:51.558Z,24.03
2023-02-23T08:34:20.499Z,26.23
2023-02-23T08:36:49.103Z,22.67
2023-02-23T08:39:17.813Z,24.60
2023-02-23T08:41:46.297Z,22.93
2023-02-23T08:44:14.783Z,24.73
2023-02-23T08:46:45.954Z,21.17
2023-02-23T08:49:14.482Z,24.63
2023-02-23T08:51:43.011Z,21.20
2023-02-23T08:54:14.643Z,21.13
2023-02-23T08:56:43.404Z,21.57
2023-02-23T08:59:14.199Z,21.63
2023-02-23T09:01:45.501Z,21.13
2023-02-23T09:04:14.276Z,20.50
2023-02-23T09:06:42.849Z,20.40
2023-02-23T09:09:11.320Z,19.37
2023-02-23T09:11:39.842Z,19.77
2023-02-23T09:14:08.631Z,18.87
2023-02-23T09:16:37.606Z,20.40
2023-02-23T09:19:07.705Z,19.80
2023-02-23T09:21:36.412Z,19.60
2023-02-23T09:24:05.125Z,19.57
2023-02-23T09:26:34.887Z,19.03
2023-02-23T09:29:03.788Z,19.63
2023-02-23T09:31:32.334Z,19.30
2023-02-23T09:34:01.791Z,19.97
2023-02-23T09:36:32.556Z,20.90
2023-02-23T09:39:01.528Z,19.67
2023-02-23T09:41:51.231Z,18.70
2023-02-23T09:44:28.659Z,17.00
2023-02-23T09:47:11.612Z,18.23
2023-02-23T09:49:43.434Z,19.23
2023-02-23T09:52:19.199Z,16.63
2023-02-23T09:54:48.578Z,16.33
2023-02-23T09:57:22.534Z,14.87
2023-02-23T09:59:51.070Z,16.93
2023-02-23T10:02:25.531Z,16.90
2023-02-23T10:04:59.109Z,17.00
2023-02-23T10:07:39.571Z,16.03
2023-02-23T10:10:21.201Z,15.83
2023-02-23T10:13:01.433Z,16.23
2023-02-23T10:15:38.866Z,14.70
2023-02-23T10:18:20.290Z,15.13
2023-02-23T10:20:56.889Z,12.70
2023-02-23T10:23:31.424Z,14.90
2023-02-23T10:26:02.750Z,13.97
2023-02-23T10:28:35.702Z,13.73
2023-02-23T10:31:13.931Z,13.17
2023-02-23T10:33:44.173Z,13.60
2023-02-23T10:36:19.242Z,12.50
2023-02-23T10:38:49.275Z,13.63
2023-02-23T10:41:17.984Z,12.40
2023-02-23T10:43:47.951Z,13.27
2023-02-23T10:46:21.982Z,14.10
2023-02-23T10:48:51.916Z,15.13
2023-02-23T10:51:28.787Z,13.87
2023-02-23T10:54:04.996Z,12.60
2023-02-23T10:56:45.038Z,13.97
2023-02-23T10:59:21.655Z,12.73
2023-02-23T11:02:02.264Z,12.73
2023-02-23T11:04:32.770Z,13.23
2023-02-23T11:07:09.531Z,13.70
2023-02-23T11:09:47.158Z,13.17
2023-02-23T11:12:22.837Z,12.67
2023-02-23T11:14:52.888Z,12.37
2023-02-23T11:17:28.802Z,13.43
2023-02-23T11:20:06.666Z,13.13
2023-02-23T11:22:37.733Z,13.93
2023-02-23T11:25:17.581Z,12.17
2023-02-23T11:27:51.511Z,12.37
2023-02-23T11:30:24.505Z,13.57
2023-02-23T11:32:55.444Z,11.90
2023-02-23T11:35:32.481Z,13.67
2023-02-23T11:38:00.936Z,10.20
2023-02-23T11:40:34.829Z,12.47
2023-02-23T11:43:09.921Z,12.93
2023-02-23T11:45:45.954Z,11.93
2023-02-23T11:48:23.368Z,11.47
2023-02-23T11:50:55.094Z,9.83
2023-02-23T11:53:31.447Z,9.73
2023-02-23T11:56:07.963Z,8.93
2023-02-23T11:58:40.531Z,8.30
2023-02-23T12:01:13.353Z,8.27
2023-02-23T12:03:48.695Z,8.40
2023-02-23T12:06:29.944Z,8.47
2023-02-23T12:09:03.647Z,8.47
2023-02-23T12:11:38.258Z,8.23
2023-02-23T12:14:13.585Z,8.13
2023-02-23T12:16:48.227Z,8.10
2023-02-23T12:19:26.663Z,10.20
2023-02-23T12:22:03.465Z,9.37
2023-02-23T12:24:45.231Z,9.13
2023-02-23T12:27:19.218Z,7.77
2023-02-23T12:30:00.904Z,8.40
2023-02-23T12:32:36.718Z,8.77
2023-02-23T12:35:13.006Z,9.67
2023-02-23T12:37:46.127Z,9.87
2023-02-23T12:40:22.861Z,9.90
2023-02-23T12:42:58.422Z,9.30
2023-02-23T12:45:33.011Z,9.60
2023-02-23T12:48:08.712Z,9.83
2023-02-23T12:50:43.402Z,9.43
2023-02-23T12:53:22.428Z,10.63
2023-02-23T12:56:04.449Z,9.13
2023-02-23T12:58:42.151Z,9.70
2023-02-23T13:01:14.553Z,9.47
2023-02-23T13:04:10.795Z,8.57
2023-02-23T13:06:51.667Z,9.67
2023-02-23T13:09:31.346Z,8.03
2023-02-23T13:12:30.320Z,8.03
2023-02-23T13:15:08.969Z,7.63
2023-02-23T13:17:41.818Z,8.30
2023-02-23T13:20:18.684Z,9.83
2023-02-23T13:22:52.678Z,7.63
2023-02-23T13:25:47.228Z,9.60
2023-02-23T13:28:21.843Z,8.53
2023-02-23T13:30:51.755Z,8.47
2023-02-23T13:33:34.955Z,7.77
2023-02-23T13:36:12.865Z,7.80
2023-02-23T13:38:47.812Z,7.13
2023-02-23T13:41:30.650Z,8.00
2023-02-23T13:44:07.609Z,6.83
2023-02-23T13:46:45.521Z,7.33
2023-02-23T13:49:29.553Z,7.87
2023-02-23T13:52:02.061Z,9.57
2023-02-23T13:54:35.113Z,7.43
2023-02-23T13:57:06.521Z,7.07
2023-02-23T13:59:43.636Z,7.07
2023-02-23T14:02:36.444Z,6.77
2023-02-23T14:05:13.161Z,6.17
2023-02-23T14:07:45.173Z,7.17
2023-02-23T14:10:21.403Z,7.10
2023-02-23T14:13:08.960Z,6.80
2023-02-23T14:15:48.256Z,7.63
2023-02-23T14:18:33.568Z,7.20
2023-02-23T14:21:14.705Z,7.53
2023-02-23T14:23:54.940Z,6.40
2023-02-23T14:26:44.872Z,6.90
2023-02-23T14:29:31.836Z,5.90
2023-02-23T14:32:04.608Z,7.23
2023-02-23T14:34:53.543Z,6.67
2023-02-23T14:37:27.370Z,7.90
2023-02-23T14:39:58.109Z,6.97
2023-02-23T14:42:29.741Z,7.67
2023-02-23T14:45:04.101Z,7.80
2023-02-23T14:47:43.443Z,8.57
2023-02-23T14:50:18.945Z,7.90
2023-02-23T14:52:48.193Z,7.40
2023-02-23T14:55:22.695Z,8.03
2023-02-23T14:57:52.495Z,7.53
2023-02-23T15:00:23.965Z,8.57
2023-02-23T15:02:59.360Z,8.33
2023-02-23T15:05:31.960Z,7.87
2023-02-23T15:08:02.387Z,9.33
2023-02-23T15:10:34.612Z,8.60
2023-02-23T15:13:09.387Z,9.80
2023-02-23T15:15:45.188Z,9.10
2023-02-23T15:18:23.234Z,9.63
2023-02-23T15:20:53.112Z,10.37
2023-02-23T15:23:22.049Z,10.07
2023-02-23T15:25:51.234Z,12.63
2023-02-23T15:28:25.275Z,12.57
2023-02-23T15:30:55.492Z,13.97
2023-02-23T15:33:28.415Z,13.80
2023-02-23T15:36:05.260Z,10.00
2023-02-23T15:38:43.494Z,8.77
2023-02-23T15:41:21.422Z,4.80
2023-02-23T15:43:50.198Z,3.87
2023-02-23T15:46:25.357Z,3.63
2023-02-23T15:48:56.174Z,3.00
2023-02-23T15:51:35.053Z,3.90
2023-02-23T15:54:13.931Z,3.43
2023-02-23T15:56:46.814Z,4.40
2023-02-23T15:59:23.696Z,4.77
2023-02-23T16:01:55.078Z,5.00
2023-02-23T16:04:29.888Z,4.33
2023-02-23T16:07:15.848Z,3.20
2023-02-23T16:09:51.252Z,3.40
2023-02-23T16:12:22.603Z,3.67
2023-02-23T16:14:54.945Z,2.70
2023-02-23T16:17:27.943Z,4.20
2023-02-23T16:20:05.875Z,3.20
2023-02-23T16:22:36.809Z,3.87
2023-02-23T16:25:12.321Z,3.30
2023-02-23T16:27:40.995Z,2.90
2023-02-23T16:30:23.236Z,3.20
2023-02-23T16:33:06.207Z,3.90
2023-02-23T16:35:38.014Z,4.87
2023-02-23T16:38:14.609Z,3.50
2023-02-23T16:40:43.501Z,5.00
2023-02-23T16:43:12.073Z,4.23
2023-02-23T16:45:43.542Z,4.07
2023-02-23T16:48:14.952Z,3.73
2023-02-23T16:50:45.487Z,4.67
2023-02-23T16:53:16.818Z,3.67
2023-02-23T16:55:51.947Z,3.93
2023-02-23T16:58:24.622Z,4.90
2023-02-23T17:00:53.902Z,4.10
2023-02-23T17:03:24.488Z,3.93
2023-02-23T17:05:53.379Z,2.80
2023-02-23T17:08:24.342Z,3.73
2023-02-23T17:10:55.813Z,5.37
2023-02-23T17:13:26.216Z,4.77
2023-02-23T17:15:56.421Z,3.83
2023-02-23T17:18:27.402Z,5.97
2023-02-23T17:20:57.932Z,7.27
2023-02-23T17:23:38.283Z,5.40
2023-02-23T17:26:07.891Z,4.57
2023-02-23T17:28:36.738Z,5.37
2023-02-23T17:31:06.489Z,3.83
2023-02-23T17:33:37.151Z,3.97
2023-02-23T17:36:08.596Z,4.97
2023-02-23T17:38:38.621Z,3.93
2023-02-23T17:41:08.986Z,3.20
2023-02-23T17:43:38.506Z,3.80
2023-02-23T17:46:07.255Z,3.77
2023-02-23T17:48:35.769Z,3.33
2023-02-23T17:51:06.412Z,3.33
2023-02-23T17:53:34.933Z,3.53
2023-02-23T17:56:05.079Z,5.17
2023-02-23T17:58:33.665Z,3.00
2023-02-23T18:01:03.454Z,3.47
2023-02-23T18:03:33.487Z,4.33
2023-02-23T18:06:02.680Z,3.93
2023-02-23T18:08:31.625Z,2.83
2023-02-23T18:11:00.528Z,3.63
2023-02-23T18:13:33.254Z,3.73
2023-02-23T18:16:04.378Z,3.60
2023-02-23T18:18:33.173Z,4.00
2023-02-23T18:21:02.733Z,3.40
2023-02-23T18:23:32.660Z,5.43
2023-02-23T18:26:09.472Z,5.83
2023-02-23T18:28:41.054Z,5.57
2023-02-23T18:31:09.641Z,3.77
2023-02-23T18:33:38.181Z,4.80
2023-02-23T18:36:17.328Z,7.17
2023-02-23T18:38:45.880Z,4.57
2023-02-23T18:41:15.482Z,5.33
2023-02-23T18:43:45.553Z,3.70
2023-02-23T18:46:15.487Z,16.30
2023-02-23T18:48:44.635Z,17.13
2023-02-23T18:51:14.522Z,12.63
2023-02-23T18:53:44.667Z,5.60
2023-02-23T18:56:15.084Z,4.13
2023-02-23T18:58:46.985Z,4.07
2023-02-23T19:01:18.274Z,3.67
2023-02-23T19:03:47.840Z,4.37
2023-02-23T19:06:17.498Z,3.10
2023-02-23T19:08:47.583Z,2.53
2023-02-23T19:11:16.130Z,3.17
2023-02-23T19:13:44.696Z,3.23
2023-02-23T19:16:15.244Z,2.47
2023-02-23T19:18:43.811Z,4.17
2023-02-23T19:21:12.349Z,19.87
2023-02-23T19:23:40.986Z,2.83
2023-02-23T19:26:09.507Z,2.77
2023-02-23T19:28:38.481Z,2.20
2023-02-23T19:31:08.998Z,2.30
2023-02-23T19:33:39.292Z,10.47
2023-02-23T19:36:12.933Z,4.77
2023-02-23T19:38:42.393Z,4.13
2023-02-23T19:41:13.339Z,2.00
2023-02-23T19:43:42.323Z,2.70
2023-02-23T19:46:12.562Z,2.97
2023-02-23T19:48:44.205Z,2.37
2023-02-23T19:51:14.390Z,3.87
2023-02-23T19:53:42.895Z,2.13
2023-02-23T19:56:14.037Z,1.70
2023-02-23T19:58:44.756Z,2.73
2023-02-23T20:01:16.757Z,2.90
2023-02-23T20:03:55.313Z,2.23
2023-02-23T20:06:25.936Z,5.30
2023-02-23T20:08:56.425Z,4.13
2023-02-23T20:11:24.926Z,4.90
2023-02-23T20:13:54.878Z,6.27
2023-02-23T20:16:29.115Z,6.20
2023-02-23T20:18:59.944Z,12.40
2023-02-23T20:21:32.239Z,12.83
2023-02-23T20:24:01.881Z,14.83
2023-02-23T20:26:34.303Z,14.57
2023-02-23T20:29:03.988Z,18.67
2023-02-23T20:31:35.182Z,15.30
2023-02-23T20:34:08.808Z,19.43
2023-02-23T20:36:37.504Z,8.03
2023-02-23T20:39:06.698Z,7.03
2023-02-23T20:41:35.306Z,12.50
2023-02-23T20:44:04.203Z,12.37
2023-02-23T20:46:32.912Z,11.40
2023-02-23T20:49:03.573Z,13.17
2023-02-23T20:51:33.656Z,22.70
2023-02-23T20:54:02.262Z,20.60
2023-02-23T20:56:32.590Z,12.27
2023-02-23T20:59:01.256Z,4.40
2023-02-23T21:01:31.858Z,3.80
2023-02-23T21:04:01.422Z,3.83
2023-02-23T21:06:32.145Z,3.87
2023-02-23T21:09:16.878Z,4.03
2023-02-23T21:11:46.221Z,2.87
2023-02-23T21:14:15.313Z,2.57
2023-02-23T21:16:46.238Z,4.17
2023-02-23T21:19:15.421Z,4.43
2023-02-23T21:21:45.897Z,5.40
2023-02-23T21:24:17.034Z,16.07
2023-02-23T21:26:45.834Z,18.40
2023-02-23T21:29:14.974Z,16.97
2023-02-23T21:31:44.711Z,8.30
2023-02-23T21:34:15.447Z,5.57
2023-02-23T21:36:44.083Z,4.43
2023-02-23T21:39:13.000Z,3.80
2023-02-23T21:41:42.926Z,4.70
2023-02-23T21:44:12.445Z,3.63
2023-02-23T21:46:41.477Z,2.37
2023-02-23T21:49:10.114Z,3.77
2023-02-23T21:51:38.955Z,3.67
2023-02-23T21:54:07.812Z,4.60
2023-02-23T21:56:36.852Z,3.20
2023-02-23T21:59:10.657Z,2.83
2023-02-23T22:01:42.811Z,3.73
2023-02-23T22:04:16.275Z,3.70
2023-02-23T22:06:45.734Z,5.00
2023-02-23T22:09:15.738Z,3.67
2023-02-23T22:11:46.685Z,3.33
2023-02-23T22:14:17.951Z,2.50
2023-02-23T22:16:47.649Z,3.30
2023-02-23T22:19:17.162Z,3.00
2023-02-23T22:21:47.742Z,3.97
2023-02-23T22:24:17.319Z,3.63
2023-02-23T22:26:50.552Z,4.17
2023-02-23T22:29:21.021Z,3.60
2023-02-23T22:31:49.826Z,3.17
2023-02-23T22:34:19.293Z,3.87
2023-02-23T22:36:48.420Z,2.80
2023-02-23T22:39:18.244Z,3.57
2023-02-23T22:41:47.418Z,3.33
2023-02-23T22:44:17.630Z,4.03
2023-02-23T22:46:48.934Z,3.40
2023-02-23T22:49:20.037Z,4.43
2023-02-23T22:51:50.396Z,3.23
2023-02-23T22:54:20.344Z,2.87
2023-02-23T22:56:48.954Z,3.63
2023-02-23T22:59:20.401Z,3.10
2023-02-23T23:01:50.565Z,3.20
2023-02-23T23:04:21.893Z,3.43
2023-02-23T23:06:51.071Z,2.33
2023-02-23T23:09:21.087Z,3.83
2023-02-23T23:11:50.995Z,3.20
2023-02-23T23:14:20.244Z,2.43
2023-02-23T23:16:51.062Z,2.20
2023-02-23T23:19:23.942Z,2.37
2023-02-23T23:21:54.923Z,2.43
2023-02-23T23:24:24.981Z,2.33
2023-02-23T23:26:56.179Z,2.77
2023-02-23T23:29:25.795Z,2.50
2023-02-23T23:31:57.320Z,2.20
2023-02-23T23:34:26.099Z,2.83
2023-02-23T23:36:55.370Z,2.20
2023-02-23T23:39:25.942Z,2.67
2023-02-23T23:41:55.375Z,2.50
2023-02-23T23:44:28.926Z,2.17
2023-02-23T23:46:59.709Z,10.97
2023-02-23T23:49:28.305Z,28.57
2023-02-23T23:51:57.559Z,34.03
2023-02-23T23:54:28.252Z,20.87
2023-02-23T23:56:56.862Z,3.77
2023-02-23T23:59:27.050Z,3.80
